Time;durP1;ratioP1;P1;durP2;ratioP2;P2;SDS_P1;SDS_P2;PMS_P1;PMS_P2;Temp;Humidity;BMP_temperature;BMP_pressure;BME280_temperature;BME280_humidity;BME280_pressure;Samples;Min_cycle;Max_cycle;Signal;HPM_P1;HPM_P2
2021/03/27 00:01:08;;;;;;;25.63;21.75;;;;;;;10.01;73.37;96263.38;5055497;28;20040;-57
2021/03/27 00:03:45;;;;;;;23.38;21.02;;;;;;;10.03;73.59;96261.47;5051709;28;20055;-57
2021/03/27 00:06:36;;;;;;;23.05;20.55;;;;;;;10.01;73.29;96259.94;5055638;28;20577;-58
2021/03/27 00:09:17;;;;;;;24.98;20.30;;;;;;;9.88;74.02;96260.91;5054300;28;20026;-58
2021/03/27 00:12:25;;;;;;;23.50;21.00;;;;;;;9.78;75.98;96261.78;5052977;28;20032;-56
2021/03/27 00:15:10;;;;;;;22.15;19.77;;;;;;;9.81;74.18;96266.78;5053211;28;20056;-56
2021/03/27 00:17:38;;;;;;;23.17;19.83;;;;;;;9.85;74.42;96273.50;5054089;28;20092;-57
2021/03/27 00:20:32;;;;;;;24.27;21.75;;;;;;;9.70;76.94;96286.91;5055255;28;20085;-58
2021/03/27 00:23:03;;;;;;;26.02;23.42;;;;;;;9.67;77.49;96292.41;5041921;28;20044;-57
2021/03/27 00:25:33;;;;;;;28.90;25.20;;;;;;;9.62;77.73;96299.84;5053830;28;20025;-56
2021/03/27 00:28:19;;;;;;;28.90;23.85;;;;;;;9.85;77.51;96308.50;5050947;28;20480;-56
2021/03/27 00:30:53;;;;;;;34.33;23.23;;;;;;;9.85;77.13;96318.22;5051091;28;20548;-57
2021/03/27 00:33:27;;;;;;;24.70;22.20;;;;;;;10.03;76.80;96323.78;5055244;28;20397;-56
2021/03/27 00:35:58;;;;;;;26.25;22.23;;;;;;;9.81;77.61;96333.38;5054443;28;20074;-56
2021/03/27 00:38:29;;;;;;;23.40;20.83;;;;;;;9.64;79.30;96334.72;5054999;28;20013;-58
2021/03/27 00:40:57;;;;;;;25.42;22.73;;;;;;;9.49;80.72;96347.25;5055005;28;20036;-55
2021/03/27 00:43:28;;;;;;;20.98;18.80;;;;;;;9.65;79.68;96356.56;5053028;28;20068;-55
2021/03/27 00:45:57;;;;;;;24.42;21.17;;;;;;;9.51;81.58;96361.13;5055901;28;20441;-55
2021/03/27 00:48:48;;;;;;;25.27;18.98;;;;;;;9.37;82.42;96374.47;5053386;28;20106;-56
2021/03/27 00:51:36;;;;;;;26.65;22.00;;;;;;;9.36;84.08;96378.88;5050049;28;20033;-55
2021/03/27 00:54:23;;;;;;;32.95;27.60;;;;;;;9.38;84.40;96382.22;5051271;28;20079;-55
2021/03/27 00:57:13;;;;;;;33.17;27.23;;;;;;;9.71;82.94;96393.75;5055930;28;20111;-52
2021/03/27 00:59:51;;;;;;;29.33;26.25;;;;;;;9.97;81.52;96397.94;5055079;28;20025;-54
2021/03/27 01:02:18;;;;;;;32.72;29.30;;;;;;;9.64;83.00;96400.44;5046320;28;20033;-54
2021/03/27 01:04:45;;;;;;;33.80;29.13;;;;;;;9.74;83.14;96409.28;5046895;28;20025;-56
2021/03/27 01:07:13;;;;;;;34.95;31.20;;;;;;;9.54;84.27;96418.72;5053625;28;20029;-57
2021/03/27 01:09:50;;;;;;;33.53;30.30;;;;;;;9.49;84.25;96418.22;5062665;28;20028;-53
2021/03/27 01:12:29;;;;;;;35.22;31.52;;;;;;;9.49;84.60;96420.03;5054381;28;20028;-54
2021/03/27 01:15:03;;;;;;;35.92;30.50;;;;;;;9.66;83.82;96416.09;5050165;28;20021;-52
2021/03/27 01:17:34;;;;;;;34.40;30.80;;;;;;;9.68;83.78;96422.91;5051820;28;20477;-55
2021/03/27 01:20:07;;;;;;;34.60;31.00;;;;;;;9.64;83.36;96424.09;5052909;28;20025;-53
2021/03/27 01:22:33;;;;;;;40.35;36.20;;;;;;;9.30;85.13;96422.25;5056275;28;20028;-56
2021/03/27 01:25:03;;;;;;;38.50;34.70;;;;;;;9.13;87.00;96422.69;5057157;28;20024;-54
2021/03/27 01:27:34;;;;;;;35.42;31.90;;;;;;;9.04;87.09;96426.84;5054343;28;20112;-57
2021/03/27 01:30:18;;;;;;;36.10;32.55;;;;;;;9.10;87.08;96423.75;5054617;28;20037;-55
2021/03/27 01:32:46;;;;;;;33.25;29.67;;;;;;;9.10;87.21;96425.56;5053948;28;20559;-56
2021/03/27 01:35:23;;;;;;;34.78;31.50;;;;;;;9.12;87.65;96437.59;5054897;28;20104;-55
2021/03/27 01:37:58;;;;;;;33.95;30.63;;;;;;;9.07;87.99;96434.47;5054184;28;20029;-55
2021/03/27 01:40:45;;;;;;;35.97;32.08;;;;;;;9.09;88.70;96435.22;5054170;28;20021;-56
2021/03/27 01:43:24;;;;;;;36.38;32.88;;;;;;;9.10;87.96;96441.31;5054648;28;20411;-57
2021/03/27 01:46:25;;;;;;;35.80;31.80;;;;;;;9.06;88.67;96439.84;5053295;28;20037;-57
2021/03/27 01:49:05;;;;;;;34.22;30.88;;;;;;;9.02;88.78;96439.25;5048128;28;20035;-61
2021/03/27 01:51:58;;;;;;;33.47;30.27;;;;;;;9.09;89.00;96440.47;5053816;28;20017;-58
2021/03/27 01:54:33;;;;;;;33.47;29.83;;;;;;;9.27;87.31;96432.97;5053269;28;20040;-54
2021/03/27 01:57:20;;;;;;;33.28;29.70;;;;;;;9.15;88.06;96433.91;5058682;28;20384;-54
2021/03/27 01:59:54;;;;;;;26.65;24.17;;;;;;;9.26;86.99;96425.22;5053619;28;20036;-56
2021/03/27 02:02:34;;;;;;;23.73;21.23;;;;;;;9.18;86.13;96417.91;5060023;28;20100;-56
2021/03/27 02:05:00;;;;;;;28.55;25.80;;;;;;;9.01;87.32;96416.56;5055735;28;20028;-56
2021/03/27 02:08:03;;;;;;;24.30;21.77;;;;;;;9.13;86.91;96418.25;5051044;28;20131;-56
2021/03/27 02:11:01;;;;;;;17.48;15.82;;;;;;;8.96;87.05;96416.91;5051482;28;20027;-55
2021/03/27 02:13:30;;;;;;;15.60;14.10;;;;;;;8.99;87.13;96413.22;5052618;28;20072;-55
2021/03/27 02:16:29;;;;;;;13.45;12.25;;;;;;;8.97;86.36;96415.13;5054261;28;20036;-57
2021/03/27 02:19:16;;;;;;;11.95;10.57;;;;;;;8.83;86.80;96416.13;5049136;28;20033;-57
2021/03/27 02:21:57;;;;;;;11.43;10.32;;;;;;;9.01;86.14;96413.94;5056533;28;20032;-55
2021/03/27 02:24:37;;;;;;;9.80;8.90;;;;;;;8.78;86.59;96423.50;5053802;28;20558;-57
2021/03/27 02:27:07;;;;;;;6.97;6.28;;;;;;;8.70;85.53;96424.91;5056547;28;20032;-57
2021/03/27 02:29:51;;;;;;;7.22;6.53;;;;;;;8.65;85.57;96421.78;5054873;28;20033;-57
2021/03/27 02:32:16;;;;;;;6.03;5.53;;;;;;;8.88;83.61;96427.16;5056498;28;20032;-58
2021/03/27 02:34:45;;;;;;;5.72;5.32;;;;;;;8.64;85.24;96441.13;5057425;28;20497;-56
2021/03/27 02:37:36;;;;;;;6.43;5.82;;;;;;;8.60;85.70;96451.00;5057192;28;20024;-57
2021/03/27 02:40:07;;;;;;;7.25;6.65;;;;;;;8.56;86.61;96453.94;5057582;28;20025;-55
2021/03/27 02:42:39;;;;;;;8.20;6.72;;;;;;;8.67;86.13;96461.03;5049815;28;20038;-57
2021/03/27 02:45:13;;;;;;;7.95;7.03;;;;;;;8.53;87.25;96457.66;5051118;28;20112;-57
2021/03/27 02:48:03;;;;;;;8.02;7.07;;;;;;;8.54;87.08;96461.94;5048056;28;20024;-57
2021/03/27 02:51:01;;;;;;;9.00;6.82;;;;;;;8.45;87.55;96465.19;5056065;28;20031;-57
2021/03/27 02:53:33;;;;;;;8.35;7.55;;;;;;;8.34;87.86;96460.69;5011608;28;20052;-56
2021/03/27 02:56:04;;;;;;;7.65;7.05;;;;;;;8.44;87.22;96459.09;5051822;28;20904;-57
2021/03/27 02:58:48;;;;;;;6.38;5.78;;;;;;;8.47;87.01;96463.28;5049670;28;20054;-57
2021/03/27 03:01:30;;;;;;;6.43;5.38;;;;;;;8.39;87.71;96461.19;5050897;28;20028;-57
2021/03/27 03:04:08;;;;;;;5.75;5.22;;;;;;;8.42;88.24;96462.78;5054796;28;20021;-57
2021/03/27 03:06:36;;;;;;;6.63;5.57;;;;;;;8.42;87.81;96475.91;5057038;28;20359;-58
2021/03/27 03:09:08;;;;;;;5.63;5.13;;;;;;;8.37;87.67;96464.91;5056676;28;20108;-57
2021/03/27 03:12:01;;;;;;;5.95;4.75;;;;;;;8.26;87.66;96463.84;5056179;28;20535;-57
2021/03/27 03:15:11;;;;;;;5.80;4.93;;;;;;;8.24;87.72;96464.94;5057126;28;20091;-56
2021/03/27 03:17:46;;;;;;;5.15;4.68;;;;;;;8.20;88.35;96461.69;5043619;28;20036;-57
2021/03/27 03:20:31;;;;;;;5.55;4.95;;;;;;;8.12;88.29;96461.38;5053474;28;20032;-58
2021/03/27 03:23:05;;;;;;;4.95;4.55;;;;;;;8.07;88.08;96468.72;5062137;28;20071;-57
2021/03/27 03:25:34;;;;;;;5.50;5.07;;;;;;;8.02;89.31;96472.50;5045478;28;20018;-57
2021/03/27 03:28:24;;;;;;;5.65;5.25;;;;;;;8.13;88.39;96477.00;5054414;28;20056;-58
2021/03/27 03:31:08;;;;;;;5.80;4.97;;;;;;;8.38;87.68;96488.38;5049706;28;20103;-55
2021/03/27 03:33:40;;;;;;;7.70;6.07;;;;;;;8.19;87.74;96488.84;5055229;28;20013;-57
2021/03/27 03:36:29;;;;;;;6.97;5.68;;;;;;;8.15;88.31;96487.41;5056012;28;20025;-58
2021/03/27 03:39:22;;;;;;;5.63;5.15;;;;;;;8.44;87.03;96495.00;5055699;28;20358;-56
2021/03/27 03:41:55;;;;;;;6.53;5.70;;;;;;;8.16;89.06;96499.56;5055790;28;20530;-57
2021/03/27 03:44:50;;;;;;;6.07;5.57;;;;;;;8.15;89.54;96497.91;5056127;28;20112;-56
2021/03/27 03:47:34;;;;;;;6.47;5.68;;;;;;;8.17;88.63;96498.63;5055545;28;20032;-57
2021/03/27 03:50:22;;;;;;;6.25;5.75;;;;;;;8.21;88.15;96515.00;5048492;28;20499;-57
2021/03/27 03:53:11;;;;;;;5.78;4.90;;;;;;;8.17;88.25;96514.34;5054027;28;20029;-57
2021/03/27 03:55:52;;;;;;;5.75;5.15;;;;;;;8.15;88.20;96518.88;5047552;28;20049;-59
2021/03/27 03:58:39;;;;;;;7.40;5.28;;;;;;;8.13;88.38;96521.59;5055216;28;20123;-58
2021/03/27 04:01:08;;;;;;;7.25;5.78;;;;;;;8.16;89.02;96518.75;5045995;28;20669;-57
2021/03/27 04:03:40;;;;;;;6.78;6.10;;;;;;;8.26;88.39;96510.25;5050479;28;20087;-57
2021/03/27 04:06:30;;;;;;;8.60;7.20;;;;;;;8.19;88.64;96520.34;5045157;28;20036;-57
2021/03/27 04:09:20;;;;;;;7.10;6.40;;;;;;;8.16;89.01;96525.78;5052098;28;20440;-57
2021/03/27 04:11:58;;;;;;;6.30;5.80;;;;;;;8.24;88.65;96523.47;5055535;28;20530;-58
2021/03/27 04:14:36;;;;;;;6.68;6.07;;;;;;;8.12;89.11;96522.53;5052302;28;20030;-58
2021/03/27 04:17:26;;;;;;;6.63;6.03;;;;;;;8.19;88.61;96515.09;5054065;28;20447;-58
2021/03/27 04:20:23;;;;;;;6.60;6.00;;;;;;;8.16;88.11;96517.94;5049939;28;20420;-58
2021/03/27 04:22:54;;;;;;;5.93;5.05;;;;;;;7.93;89.54;96522.97;5063459;28;20021;-58
2021/03/27 04:25:34;;;;;;;6.70;5.78;;;;;;;8.04;88.74;96524.88;5050860;28;20024;-58
2021/03/27 04:28:02;;;;;;;9.30;5.45;;;;;;;8.02;88.97;96524.94;5054983;28;20052;-57
2021/03/27 04:30:31;;;;;;;9.05;6.18;;;;;;;7.95;89.26;96533.34;5051657;28;20448;-58
2021/03/27 04:33:15;;;;;;;5.47;5.05;;;;;;;7.89;89.51;96534.63;5052738;28;20037;-58
2021/03/27 04:35:55;;;;;;;5.78;5.25;;;;;;;7.81;90.14;96534.28;5042297;28;20056;-57
2021/03/27 04:38:24;;;;;;;9.63;5.22;;;;;;;7.82;89.97;96534.19;5050985;28;20374;-58
2021/03/27 04:40:50;;;;;;;6.60;5.95;;;;;;;7.94;89.54;96543.00;5051320;28;20023;-58
2021/03/27 04:43:29;;;;;;;6.20;5.28;;;;;;;7.95;88.99;96549.94;5049540;28;20456;-58
2021/03/27 04:46:19;;;;;;;4.68;4.38;;;;;;;7.94;88.10;96553.50;5041468;28;20041;-58
2021/03/27 04:49:02;;;;;;;6.38;4.30;;;;;;;7.88;87.40;96557.38;5040183;28;20108;-57
2021/03/27 04:51:43;;;;;;;4.18;3.88;;;;;;;7.86;86.84;96556.63;5052072;28;20028;-57
2021/03/27 04:54:22;;;;;;;4.05;3.75;;;;;;;7.83;87.22;96558.63;5054854;28;20508;-58
2021/03/27 04:57:10;;;;;;;4.80;4.40;;;;;;;7.78;87.31;96563.34;5055806;28;20021;-58
2021/03/27 05:00:18;;;;;;;5.65;4.30;;;;;;;7.92;87.78;96573.75;5054298;28;20039;-58
2021/03/27 05:02:58;;;;;;;6.63;5.57;;;;;;;7.71;89.34;96581.25;5048747;28;20040;-58
2021/03/27 05:05:42;;;;;;;6.40;5.78;;;;;;;8.03;87.85;96581.69;5050294;28;20023;-58
2021/03/27 05:08:17;;;;;;;6.47;5.97;;;;;;;7.93;88.40;96585.06;5054212;28;20086;-57
2021/03/27 05:11:00;;;;;;;7.33;6.67;;;;;;;7.82;88.87;96588.41;5053823;28;20551;-58
2021/03/27 05:13:25;;;;;;;14.13;12.65;;;;;;;7.91;88.43;96592.19;5053828;28;20017;-58
2021/03/27 05:16:09;;;;;;;8.00;6.85;;;;;;;7.88;88.52;96607.19;5040364;28;20032;-57
2021/03/27 05:19:05;;;;;;;6.40;5.80;;;;;;;7.86;89.00;96606.44;5054697;28;20393;-57
2021/03/27 05:21:36;;;;;;;5.28;4.72;;;;;;;7.88;88.19;96611.59;5056695;28;20025;-57
2021/03/27 05:24:13;;;;;;;4.97;4.65;;;;;;;8.03;88.16;96610.56;5052241;28;20009;-58
2021/03/27 05:27:15;;;;;;;6.20;5.13;;;;;;;7.89;88.73;96613.28;5054024;28;20032;-57
2021/03/27 05:29:52;;;;;;;4.68;4.25;;;;;;;7.82;88.79;96625.09;5047324;28;20056;-58
2021/03/27 05:32:56;;;;;;;4.38;4.00;;;;;;;7.81;87.99;96631.28;5048266;28;20046;-57
2021/03/27 05:35:27;;;;;;;3.25;2.95;;;;;;;7.60;85.95;96626.50;5045470;28;20056;-57
2021/03/27 05:38:16;;;;;;;2.00;1.90;;;;;;;7.27;83.79;96646.94;5053531;28;20028;-57
2021/03/27 05:41:14;;;;;;;2.70;2.20;;;;;;;7.22;83.56;96661.28;5037334;28;20026;-57
2021/03/27 05:43:57;;;;;;;3.13;1.60;;;;;;;7.03;81.93;96663.25;5023501;28;20050;-56
2021/03/27 05:47:01;;;;;;;4.13;2.13;;;;;;;6.93;82.61;96667.41;5044597;28;20027;-58
2021/03/27 05:49:49;;;;;;;1.90;1.80;;;;;;;6.83;82.06;96671.50;5053193;28;20087;-57
2021/03/27 05:52:51;;;;;;;1.90;1.80;;;;;;;6.78;82.10;96676.19;5049954;28;20025;-58
2021/03/27 05:55:35;;;;;;;2.08;1.98;;;;;;;6.65;82.39;96673.50;5018582;28;20061;-57
2021/03/27 05:58:18;;;;;;;2.65;2.25;;;;;;;6.50;82.94;96676.09;5058161;28;20024;-58
2021/03/27 06:01:08;;;;;;;2.80;2.05;;;;;;;6.56;82.36;96686.22;5057337;28;20017;-57
2021/03/27 06:04:03;;;;;;;2.78;1.88;;;;;;;6.37;81.75;96690.84;5044845;28;20021;-58
2021/03/27 06:06:50;;;;;;;3.22;1.92;;;;;;;6.44;81.71;96692.16;5052023;28;20570;-58
2021/03/27 06:09:47;;;;;;;4.00;2.70;;;;;;;6.41;82.17;96701.06;5054885;28;20450;-57
2021/03/27 06:12:24;;;;;;;3.00;2.42;;;;;;;6.37;82.03;96702.16;5049076;28;20033;-58
2021/03/27 06:15:27;;;;;;;3.22;2.60;;;;;;;6.53;81.51;96709.09;5058260;28;20033;-57
2021/03/27 06:18:31;;;;;;;3.35;2.20;;;;;;;6.44;82.43;96710.47;5056750;28;20025;-58
2021/03/27 06:21:18;;;;;;;3.53;2.90;;;;;;;6.35;82.35;96714.47;5009997;28;20037;-58
2021/03/27 06:23:49;;;;;;;2.63;2.30;;;;;;;6.46;81.24;96716.47;5054428;28;20446;-58
2021/03/27 06:26:35;;;;;;;3.80;2.10;;;;;;;6.43;81.29;96727.09;5057324;28;20104;-59
2021/03/27 06:29:29;;;;;;;2.70;2.42;;;;;;;6.36;79.37;96723.19;5047386;28;20032;-58
2021/03/27 06:32:29;;;;;;;4.78;3.20;;;;;;;6.36;78.57;96725.78;5056626;28;20052;-58
2021/03/27 06:35:24;;;;;;;2.72;2.50;;;;;;;6.39;78.71;96733.47;5053032;28;20021;-56
2021/03/27 06:38:21;;;;;;;3.08;2.22;;;;;;;6.34;78.96;96743.34;5052248;28;20045;-57
2021/03/27 06:41:02;;;;;;;5.05;2.67;;;;;;;6.25;77.93;96740.31;5057205;28;20029;-57
2021/03/27 06:43:49;;;;;;;3.38;2.50;;;;;;;6.30;79.09;96743.53;5056917;28;20501;-57
2021/03/27 06:46:59;;;;;;;3.38;2.30;;;;;;;6.39;78.61;96751.78;5057541;28;20043;-57
2021/03/27 06:50:03;;;;;;;4.25;2.80;;;;;;;6.34;78.12;96751.19;5033116;28;20104;-57
2021/03/27 06:52:53;;;;;;;4.18;2.47;;;;;;;6.27;77.57;96755.94;5045781;28;20033;-55
2021/03/27 06:55:38;;;;;;;7.45;3.38;;;;;;;6.18;78.34;96754.69;5055734;28;20024;-58
2021/03/27 06:58:32;;;;;;;5.70;3.45;;;;;;;6.16;77.85;96756.56;5056956;28;20090;-57
2021/03/27 07:01:23;;;;;;;5.93;2.58;;;;;;;6.20;77.98;96754.63;5041052;28;20041;-57
2021/03/27 07:04:09;;;;;;;9.02;3.08;;;;;;;6.16;78.60;96769.63;5052316;28;20020;-57
2021/03/27 07:06:56;;;;;;;3.88;2.55;;;;;;;6.03;78.41;96779.97;5057060;28;20051;-57
2021/03/27 07:10:00;;;;;;;5.55;2.63;;;;;;;6.09;77.76;96776.16;5048131;28;20113;-58
2021/03/27 07:12:53;;;;;;;8.13;3.20;;;;;;;6.07;77.25;96781.47;5053566;28;20150;-56
2021/03/27 07:15:57;;;;;;;6.57;2.70;;;;;;;6.17;75.62;96789.63;5054396;28;20570;-57
2021/03/27 07:18:40;;;;;;;5.38;2.65;;;;;;;6.06;76.05;96792.00;5053903;28;20103;-55
2021/03/27 07:21:40;;;;;;;12.10;8.02;;;;;;;6.03;77.58;96798.25;5069155;28;20025;-55
2021/03/27 07:24:09;;;;;;;6.05;2.63;;;;;;;6.02;75.94;96799.19;5051692;28;20126;-56
2021/03/27 07:26:53;;;;;;;7.18;5.68;;;;;;;6.21;77.14;96804.19;5056632;28;20394;-57
2021/03/27 07:29:37;;;;;;;10.73;4.05;;;;;;;6.28;77.35;96807.31;5047755;28;20029;-57
2021/03/27 07:32:05;;;;;;;7.18;4.00;;;;;;;6.29;77.60;96809.00;5042883;28;20108;-57
2021/03/27 07:34:53;;;;;;;6.63;3.28;;;;;;;6.20;76.13;96820.00;5055932;28;20021;-57
2021/03/27 07:37:45;;;;;;;8.20;3.28;;;;;;;6.19;76.50;96826.13;5046461;28;20029;-58
2021/03/27 07:40:37;;;;;;;5.43;3.22;;;;;;;6.30;77.03;96827.22;5046979;28;20082;-57
2021/03/27 07:43:31;;;;;;;4.15;3.75;;;;;;;6.42;78.43;96830.91;5039933;28;20044;-58
2021/03/27 07:46:20;;;;;;;8.82;3.90;;;;;;;6.37;78.01;96826.88;5042696;28;20021;-58
2021/03/27 07:49:11;;;;;;;6.70;3.20;;;;;;;6.45;77.05;96830.75;5047220;28;20047;-57
2021/03/27 07:51:57;;;;;;;8.07;4.13;;;;;;;6.49;77.20;96843.63;5041864;28;20032;-58
2021/03/27 07:54:45;;;;;;;9.88;4.45;;;;;;;6.54;75.92;96838.97;5047897;28;20108;-58
2021/03/27 07:57:47;;;;;;;7.28;4.13;;;;;;;6.66;75.28;96846.13;5044407;28;20060;-58
2021/03/27 08:00:34;;;;;;;3.53;3.15;;;;;;;6.67;75.56;96847.81;5052215;28;20029;-61
2021/03/27 08:03:48;;;;;;;7.22;3.67;;;;;;;6.80;75.83;96849.69;5055340;28;20057;-59
2021/03/27 08:06:31;;;;;;;7.07;3.78;;;;;;;6.70;75.83;96854.63;5042039;28;20038;-60
2021/03/27 08:09:16;;;;;;;8.00;3.20;;;;;;;6.81;75.39;96848.75;5052163;28;20032;-61
2021/03/27 08:12:21;;;;;;;6.40;3.53;;;;;;;6.80;75.25;96866.25;5049065;28;20024;-59
2021/03/27 08:15:12;;;;;;;6.18;3.20;;;;;;;6.89;74.41;96864.88;5048951;28;20300;-61
2021/03/27 08:17:48;;;;;;;7.30;3.70;;;;;;;6.93;73.91;96868.13;5049845;28;20127;-62
2021/03/27 08:20:47;;;;;;;4.05;3.35;;;;;;;7.15;72.02;96875.59;5050680;28;20031;-61
2021/03/27 08:23:34;;;;;;;6.45;3.25;;;;;;;7.14;72.04;96877.34;5052538;28;20033;-63
2021/03/27 08:26:38;;;;;;;7.05;3.20;;;;;;;7.07;71.23;96877.78;5051579;28;20037;-61
2021/03/27 08:29:44;;;;;;;6.57;3.20;;;;;;;7.10;70.41;96881.09;5028641;28;20045;-63
2021/03/27 08:32:15;;;;;;;5.40;2.92;;;;;;;7.27;71.66;96874.00;5046928;28;20032;-62
2021/03/27 08:35:07;;;;;;;5.28;3.50;;;;;;;7.37;69.17;96884.78;5050075;28;20029;-62
2021/03/27 08:38:10;;;;;;;3.45;2.97;;;;;;;7.71;69.06;96883.56;5049841;28;20539;-64
2021/03/27 08:40:54;;;;;;;5.45;4.38;;;;;;;7.82;67.25;96896.00;5059848;28;20021;-61
2021/03/27 08:43:32;;;;;;;5.22;3.25;;;;;;;7.94;69.20;96899.63;5051487;28;20068;-62
2021/03/27 08:46:23;;;;;;;8.07;4.00;;;;;;;8.35;66.90;96897.13;5046087;28;20053;-61
2021/03/27 08:49:10;;;;;;;8.10;3.53;;;;;;;8.50;66.30;96909.25;5042137;28;20029;-62
2021/03/27 08:51:35;;;;;;;4.72;2.67;;;;;;;8.52;65.68;96909.19;5047560;28;20033;-64
2021/03/27 08:54:11;;;;;;;4.88;3.38;;;;;;;8.68;61.97;96909.00;5047710;28;20032;-60
2021/03/27 08:56:55;;;;;;;5.63;3.22;;;;;;;8.44;59.88;96912.25;5049332;28;20124;-60
2021/03/27 09:00:01;;;;;;;5.75;3.30;;;;;;;8.64;60.59;96912.78;5043691;28;20039;-59
2021/03/27 09:02:42;;;;;;;8.48;3.30;;;;;;;9.06;60.66;96913.53;5047765;28;20189;-61
2021/03/27 09:05:30;;;;;;;5.50;3.72;;;;;;;9.15;57.36;96912.91;5045392;28;20040;-62
2021/03/27 09:08:20;;;;;;;4.93;3.47;;;;;;;9.15;58.16;96914.69;5052912;28;20040;-61
2021/03/27 09:11:01;;;;;;;8.63;4.13;;;;;;;9.57;54.94;96922.38;5050156;28;20036;-59
2021/03/27 09:13:59;;;;;;;6.07;3.00;;;;;;;9.56;54.89;96910.19;5049881;28;20067;-59
2021/03/27 09:16:50;;;;;;;7.05;3.25;;;;;;;9.83;56.83;96919.75;5054287;28;20370;-59
2021/03/27 09:19:45;;;;;;;7.05;4.05;;;;;;;9.61;54.14;96918.59;5050311;28;20040;-61
2021/03/27 09:22:17;;;;;;;5.95;3.88;;;;;;;9.43;55.18;96920.72;5053160;28;20425;-60
2021/03/27 09:24:50;;;;;;;4.57;3.28;;;;;;;9.45;55.69;96924.94;5062097;28;20513;-60
2021/03/27 09:27:37;;;;;;;3.72;2.53;;;;;;;9.39;53.64;96930.56;5048866;28;20025;-61
2021/03/27 09:30:09;;;;;;;5.60;2.30;;;;;;;9.45;56.21;96930.19;5055922;28;20213;-62
2021/03/27 09:32:53;;;;;;;6.38;2.70;;;;;;;9.71;54.52;96924.91;5056117;28;20467;-60
2021/03/27 09:35:40;;;;;;;6.38;3.05;;;;;;;9.85;55.30;96928.38;5054886;28;20036;-63
2021/03/27 09:38:18;;;;;;;4.97;2.75;;;;;;;9.68;55.10;96930.41;5063877;28;20490;-62
2021/03/27 09:41:21;;;;;;;4.72;2.80;;;;;;;9.25;53.56;96925.44;5054369;28;20033;-61
2021/03/27 09:44:08;;;;;;;8.85;2.88;;;;;;;9.02;54.90;96939.16;5046478;28;20092;-60
2021/03/27 09:47:05;;;;;;;7.05;2.75;;;;;;;9.46;55.61;96942.38;5046049;28;20044;-63
2021/03/27 09:50:15;;;;;;;7.15;2.95;;;;;;;9.90;55.09;96936.78;5056824;28;20028;-60
2021/03/27 09:52:51;;;;;;;3.80;2.90;;;;;;;9.92;54.11;96932.25;5051439;28;20032;-60
2021/03/27 09:55:45;;;;;;;6.53;2.92;;;;;;;10.58;54.09;96931.16;5047450;28;20521;-60
2021/03/27 09:58:11;;;;;;;8.50;2.13;;;;;;;10.85;50.19;96924.84;5051444;28;20029;-60
2021/03/27 10:01:18;;;;;;;8.65;2.58;;;;;;;10.88;50.19;96925.44;5055952;28;20025;-60
2021/03/27 10:04:12;;;;;;;4.35;2.65;;;;;;;10.93;50.92;96927.75;5045945;28;20504;-60
2021/03/27 10:07:08;;;;;;;6.38;3.00;;;;;;;11.22;51.29;96927.34;5055194;28;20037;-60
2021/03/27 10:09:50;;;;;;;4.63;2.55;;;;;;;10.88;50.04;96924.63;5053187;28;20397;-60
2021/03/27 10:12:28;;;;;;;6.35;2.63;;;;;;;10.81;51.85;96924.22;5050064;28;20041;-60
2021/03/27 10:15:31;;;;;;;5.22;2.60;;;;;;;11.11;49.48;96930.78;5054302;28;20116;-60
2021/03/27 10:18:17;;;;;;;6.75;2.75;;;;;;;10.94;50.89;96932.06;5033944;28;20098;-60
2021/03/27 10:21:06;;;;;;;6.65;2.67;;;;;;;11.17;51.04;96932.13;5053314;28;20123;-61
2021/03/27 10:23:38;;;;;;;7.25;2.55;;;;;;;10.81;52.36;96940.03;5053151;28;20143;-60
2021/03/27 10:26:48;;;;;;;6.97;2.95;;;;;;;11.23;49.90;96936.13;5048960;28;20034;-62
2021/03/27 10:32:30;;;;;;;6.25;2.78;;;;;;;10.90;49.25;96949.06;5050963;28;20793;-62
2021/03/27 10:35:33;;;;;;;4.38;2.60;;;;;;;10.80;48.99;96943.63;5066771;28;20033;-59
2021/03/27 10:38:25;;;;;;;6.40;2.55;;;;;;;10.69;48.92;96940.91;5051877;28;20024;-60
2021/03/27 10:41:01;;;;;;;4.53;2.35;;;;;;;10.93;48.90;96940.06;5048676;28;20036;-58
2021/03/27 10:43:37;;;;;;;8.15;2.72;;;;;;;11.70;49.55;96941.34;5050959;28;20057;-58
2021/03/27 10:46:23;;;;;;;8.02;2.83;;;;;;;11.65;46.17;96933.81;5054138;28;20033;-57
2021/03/27 10:49:21;;;;;;;6.00;2.65;;;;;;;12.03;47.46;96930.00;5049199;28;20247;-60
2021/03/27 10:52:08;;;;;;;5.70;2.78;;;;;;;12.24;45.86;96923.97;5047311;28;20045;-55
2021/03/27 10:54:55;;;;;;;4.85;2.13;;;;;;;12.64;45.75;96922.59;5048935;28;20444;-56
2021/03/27 10:57:57;;;;;;;4.97;2.33;;;;;;;12.79;44.66;96923.13;5055828;28;20025;-58
2021/03/27 11:00:41;;;;;;;4.80;2.30;;;;;;;12.90;44.97;96930.19;5052589;28;20029;-58
2021/03/27 11:03:25;;;;;;;5.25;2.58;;;;;;;13.17;43.96;96919.13;5044861;28;20036;-57
2021/03/27 11:06:22;;;;;;;7.97;2.63;;;;;;;13.22;43.53;96916.09;5050999;28;20040;-58
2021/03/27 11:09:22;;;;;;;5.47;2.20;;;;;;;12.68;43.97;96923.16;5041303;28;20025;-58
2021/03/27 11:12:11;;;;;;;4.97;2.72;;;;;;;11.83;45.25;96920.16;5049488;28;20033;-58
2021/03/27 11:14:54;;;;;;;7.25;2.88;;;;;;;11.57;46.39;96921.19;5050144;28;20047;-57
2021/03/27 11:17:38;;;;;;;4.55;2.50;;;;;;;11.75;47.45;96918.94;5055872;28;20051;-55
2021/03/27 11:20:07;;;;;;;7.32;2.58;;;;;;;11.66;46.54;96919.66;5050900;28;20036;-55
2021/03/27 11:23:13;;;;;;;5.90;3.08;;;;;;;11.84;47.19;96916.56;5050947;28;20029;-56
2021/03/27 11:26:05;;;;;;;6.63;2.75;;;;;;;11.77;46.66;96915.34;5049154;28;20064;-56
2021/03/27 11:28:52;;;;;;;4.78;2.40;;;;;;;11.91;47.14;96917.75;5052016;28;20067;-57
2021/03/27 11:31:51;;;;;;;3.78;2.20;;;;;;;11.83;46.92;96920.97;5054595;28;20037;-56
2021/03/27 11:34:42;;;;;;;5.90;2.78;;;;;;;11.73;46.13;96926.13;5054294;28;20025;-57
2021/03/27 11:37:43;;;;;;;7.22;3.08;;;;;;;11.69;45.58;96926.47;5046147;28;20512;-57
2021/03/27 11:40:30;;;;;;;4.65;2.58;;;;;;;11.41;47.53;96928.59;5030856;28;20044;-56
2021/03/27 11:43:04;;;;;;;4.60;2.60;;;;;;;11.23;47.92;96922.94;5066398;28;20528;-57
2021/03/27 11:45:39;;;;;;;2.58;2.33;;;;;;;11.39;46.73;96922.59;5045310;28;20043;-54
2021/03/27 11:48:27;;;;;;;6.20;2.63;;;;;;;11.27;47.01;96916.47;5049288;28;20025;-54
2021/03/27 11:51:02;;;;;;;5.93;3.13;;;;;;;11.39;45.93;96919.97;5050638;28;20413;-56
2021/03/27 11:54:00;;;;;;;7.90;2.88;;;;;;;11.44;47.57;96916.03;5048680;28;20112;-54
2021/03/27 11:56:59;;;;;;;6.05;3.05;;;;;;;11.53;47.26;96913.63;5052281;28;20032;-56
2021/03/27 12:02:35;;;;;;;7.03;2.60;;;;;;;11.89;47.14;96914.38;5053231;28;20048;-56
2021/03/27 12:05:12;;;;;;;6.25;2.60;;;;;;;12.21;45.94;96913.66;5053390;28;20025;-56
2021/03/27 12:07:53;;;;;;;3.83;2.45;;;;;;;11.90;44.62;96916.06;5047515;28;20040;-56
2021/03/27 12:10:51;;;;;;;6.47;3.15;;;;;;;11.82;46.22;96907.88;5054968;28;20037;-57
2021/03/27 12:13:32;;;;;;;6.40;3.10;;;;;;;12.29;45.67;96910.41;5052229;28;20025;-53
2021/03/27 12:16:39;;;;;;;4.68;2.42;;;;;;;12.13;44.80;96905.53;5047363;28;20507;-57
2021/03/27 12:19:14;;;;;;;5.28;2.90;;;;;;;11.98;44.71;96905.72;5048267;28;20036;-56
2021/03/27 12:22:14;;;;;;;9.00;2.35;;;;;;;11.88;44.97;96904.78;5049631;28;20040;-56
2021/03/27 12:24:52;;;;;;;5.20;2.80;;;;;;;12.17;44.85;96899.03;5051612;28;20520;-57
2021/03/27 12:27:39;;;;;;;3.80;2.20;;;;;;;12.35;44.17;96895.88;5051513;28;20064;-57
2021/03/27 12:30:51;;;;;;;7.07;2.47;;;;;;;12.48;45.04;96893.91;5049620;28;20033;-57
2021/03/27 12:33:50;;;;;;;7.50;2.88;;;;;;;13.09;43.21;96894.31;5050537;28;20100;-56
2021/03/27 12:36:28;;;;;;;7.82;2.40;;;;;;;13.51;41.43;96890.81;5048979;28;20051;-57
2021/03/27 12:39:25;;;;;;;5.82;2.28;;;;;;;14.36;39.30;96885.28;5043216;28;20141;-56
2021/03/27 12:41:54;;;;;;;4.97;2.17;;;;;;;14.86;40.87;96881.75;5049807;28;20037;-57
2021/03/27 12:44:33;;;;;;;6.80;3.92;;;;;;;15.37;39.40;96881.56;5055830;28;20036;-56
2021/03/27 12:47:21;;;;;;;4.50;2.25;;;;;;;15.29;36.86;96877.81;5047612;28;20029;-57
2021/03/27 12:50:07;;;;;;;3.42;2.10;;;;;;;15.23;36.10;96882.84;5047495;28;20036;-58
2021/03/27 12:53:14;;;;;;;4.95;2.38;;;;;;;14.78;38.40;96879.78;5048542;28;20550;-57
2021/03/27 12:56:12;;;;;;;3.90;2.20;;;;;;;14.59;39.03;96877.94;5047196;28;20042;-57
2021/03/27 12:58:44;;;;;;;6.05;2.47;;;;;;;15.31;38.57;96875.00;5039563;28;20045;-56
2021/03/27 13:01:32;;;;;;;4.47;2.70;;;;;;;14.55;38.93;96872.09;5053364;28;20469;-57
2021/03/27 13:04:09;;;;;;;4.07;1.98;;;;;;;14.33;38.35;96871.34;5050392;28;20523;-57
2021/03/27 13:06:41;;;;;;;5.63;2.47;;;;;;;15.25;37.29;96870.25;5048703;28;21077;-56